Ana Sayfa
METAR-TAF:

METAR-TAF

Havaalanları :

Antsiranana, Madagaskar

Enlem: 12-21S, Boylam: 049-18E, yükseklik: 114 m

Güncel hava durumu gözlemi

Rapor saat 15:00 UTC de 2 saat ve 19 dakika önce yapıldı.
Rüzgar batıdan 8 kt
Sıcaklık 28°C
Nem 70%
Basınç 1010 hPa
Görüş mesafesi 10 km veya daha fazla
2000 ft yükseklikte parçalı bulutlu, Kümülonimbus.

METAR: FMNA 111500Z 28008KT 9999 SCT020CB 28/22 Q1010

Saat: 20:19 (17:19 UTC)

Tahmin

Rapor saat 11:00 UTC de 6 saat ve 19 dakika önce yapıldı.
Ayın 11'si saat 12 UTC'den ayın 12'si saat 12 UTC'ye kadar geçerli Tahmin
Rüzgar değişken yönden 5 kt
Görüş mesafesi 10 km veya daha fazla
2000 ft yükseklikte az bulutlu, Kümülonimbus.
Dönüşüyor
ayın 11'si saat 20 UTC'den ayın 11'si saat 21 UTC'ye kadar
2000 ft yükseklikte az bulutlu
4000 ft yükseklikte parçalı bulutlu

TAF: FMNA 111100Z 1112/1212 VRB05KT 9999 FEW020CB BECMG 1120/1121 FEW020 SCT040

4.000'den fazla havaalanı için hava durumu gözlemleri ve tahminleri (METAR ve TAF raporları).

Kullanılabilir istasyonlar harita üzerinde sarı ve kırmızı noktalarla gösterilir.

İstasyonun adını görmek için fareyi noktanın üzerinde gezdirin.

Sonrasında hava gözlem ve tahminlerini görmek için tıklayın.

Haritayı değiştirmek için: yaklaştırmak için siyah artı işaretli yeşil düğmeye ve uzaklaştırmak için de eksi işaretli düğmeye hızla tıklayın; bitişik haritalar için yeşil okları kullanın.


METAR-TAF: